sensor_id;sensor_type;location;lat;lon;timestamp;P1;durP1;ratioP1;P2;durP2;ratioP2
51238;SDS011;38154;47.548;18.828;2023-03-14T00:01:48;6.60;;;3.28;;
51238;SDS011;38154;47.548;18.828;2023-03-14T00:04:14;5.53;;;2.90;;
51238;SDS011;38154;47.548;18.828;2023-03-14T00:06:40;9.15;;;3.33;;
51238;SDS011;38154;47.548;18.828;2023-03-14T00:09:06;5.85;;;3.30;;
51238;SDS011;38154;47.548;18.828;2023-03-14T00:11:33;4.87;;;3.28;;
51238;SDS011;38154;47.548;18.828;2023-03-14T00:13:59;6.53;;;2.78;;
51238;SDS011;38154;47.548;18.828;2023-03-14T00:16:25;3.75;;;2.10;;
51238;SDS011;38154;47.548;18.828;2023-03-14T00:18:52;7.20;;;3.47;;
51238;SDS011;38154;47.548;18.828;2023-03-14T00:21:17;3.60;;;2.37;;
51238;SDS011;38154;47.548;18.828;2023-03-14T00:23:43;4.78;;;2.30;;
51238;SDS011;38154;47.548;18.828;2023-03-14T00:26:14;8.18;;;3.25;;
51238;SDS011;38154;47.548;18.828;2023-03-14T00:28:41;3.70;;;2.50;;
51238;SDS011;38154;47.548;18.828;2023-03-14T00:33:34;6.85;;;3.55;;
51238;SDS011;38154;47.548;18.828;2023-03-14T00:36:04;3.45;;;2.75;;
51238;SDS011;38154;47.548;18.828;2023-03-14T00:38:34;5.85;;;3.12;;
51238;SDS011;38154;47.548;18.828;2023-03-14T00:41:04;6.28;;;3.47;;
51238;SDS011;38154;47.548;18.828;2023-03-14T00:43:31;5.18;;;2.53;;
51238;SDS011;38154;47.548;18.828;2023-03-14T00:45:57;3.65;;;2.37;;
51238;SDS011;38154;47.548;18.828;2023-03-14T00:48:23;5.12;;;2.47;;
51238;SDS011;38154;47.548;18.828;2023-03-14T00:50:49;3.72;;;2.10;;
51238;SDS011;38154;47.548;18.828;2023-03-14T00:53:15;4.28;;;2.47;;
51238;SDS011;38154;47.548;18.828;2023-03-14T00:55:42;6.47;;;3.28;;
51238;SDS011;38154;47.548;18.828;2023-03-14T01:00:35;4.53;;;2.37;;
51238;SDS011;38154;47.548;18.828;2023-03-14T01:03:02;5.20;;;3.28;;
51238;SDS011;38154;47.548;18.828;2023-03-14T01:05:28;3.75;;;1.73;;
51238;SDS011;38154;47.548;18.828;2023-03-14T01:07:54;5.72;;;2.35;;
51238;SDS011;38154;47.548;18.828;2023-03-14T01:10:20;4.72;;;2.45;;
51238;SDS011;38154;47.548;18.828;2023-03-14T01:12:46;7.93;;;3.05;;
51238;SDS011;38154;47.548;18.828;2023-03-14T01:15:12;3.67;;;2.13;;
51238;SDS011;38154;47.548;18.828;2023-03-14T01:17:38;8.52;;;3.72;;
51238;SDS011;38154;47.548;18.828;2023-03-14T01:20:05;7.65;;;3.45;;
51238;SDS011;38154;47.548;18.828;2023-03-14T01:22:35;5.15;;;2.97;;
51238;SDS011;38154;47.548;18.828;2023-03-14T01:27:27;4.72;;;3.28;;
51238;SDS011;38154;47.548;18.828;2023-03-14T01:29:53;4.87;;;3.10;;
51238;SDS011;38154;47.548;18.828;2023-03-14T01:32:19;5.23;;;3.37;;
51238;SDS011;38154;47.548;18.828;2023-03-14T01:34:44;7.37;;;3.75;;
51238;SDS011;38154;47.548;18.828;2023-03-14T01:37:10;6.95;;;3.87;;
51238;SDS011;38154;47.548;18.828;2023-03-14T01:39:37;7.05;;;3.20;;
51238;SDS011;38154;47.548;18.828;2023-03-14T01:42:03;6.90;;;3.78;;
51238;SDS011;38154;47.548;18.828;2023-03-14T01:47:13;5.53;;;3.08;;
51238;SDS011;38154;47.548;18.828;2023-03-14T01:49:39;5.75;;;3.28;;
51238;SDS011;38154;47.548;18.828;2023-03-14T01:52:39;5.87;;;3.07;;
51238;SDS011;38154;47.548;18.828;2023-03-14T01:55:05;10.52;;;3.75;;
51238;SDS011;38154;47.548;18.828;2023-03-14T01:57:34;5.28;;;3.15;;
51238;SDS011;38154;47.548;18.828;2023-03-14T02:00:08;4.72;;;3.47;;
51238;SDS011;38154;47.548;18.828;2023-03-14T02:02:38;13.15;;;3.45;;
51238;SDS011;38154;47.548;18.828;2023-03-14T02:05:07;5.80;;;3.10;;
51238;SDS011;38154;47.548;18.828;2023-03-14T02:10:17;4.12;;;2.53;;
51238;SDS011;38154;47.548;18.828;2023-03-14T02:12:45;15.10;;;3.87;;
51238;SDS011;38154;47.548;18.828;2023-03-14T02:15:13;6.28;;;3.30;;
51238;SDS011;38154;47.548;18.828;2023-03-14T02:17:40;3.90;;;2.83;;
51238;SDS011;38154;47.548;18.828;2023-03-14T02:22:37;4.12;;;3.12;;
51238;SDS011;38154;47.548;18.828;2023-03-14T02:25:24;8.80;;;3.53;;
51238;SDS011;38154;47.548;18.828;2023-03-14T02:27:52;6.85;;;3.30;;
51238;SDS011;38154;47.548;18.828;2023-03-14T02:30:19;4.15;;;2.83;;
51238;SDS011;38154;47.548;18.828;2023-03-14T02:32:52;4.37;;;2.40;;
51238;SDS011;38154;47.548;18.828;2023-03-14T02:35:23;4.50;;;2.37;;
51238;SDS011;38154;47.548;18.828;2023-03-14T02:37:57;8.52;;;2.60;;
51238;SDS011;38154;47.548;18.828;2023-03-14T02:40:29;5.53;;;3.00;;
51238;SDS011;38154;47.548;18.828;2023-03-14T02:42:55;2.27;;;2.00;;
51238;SDS011;38154;47.548;18.828;2023-03-14T02:47:49;4.37;;;2.80;;
51238;SDS011;38154;47.548;18.828;2023-03-14T02:50:26;6.57;;;2.40;;
51238;SDS011;38154;47.548;18.828;2023-03-14T02:52:55;3.30;;;2.22;;
51238;SDS011;38154;47.548;18.828;2023-03-14T02:55:22;8.45;;;2.62;;
51238;SDS011;38154;47.548;18.828;2023-03-14T02:57:49;3.95;;;2.05;;
51238;SDS011;38154;47.548;18.828;2023-03-14T03:00:16;2.70;;;2.28;;
51238;SDS011;38154;47.548;18.828;2023-03-14T03:02:42;5.10;;;2.30;;
51238;SDS011;38154;47.548;18.828;2023-03-14T03:05:08;5.50;;;2.37;;
51238;SDS011;38154;47.548;18.828;2023-03-14T03:07:34;6.20;;;2.53;;
51238;SDS011;38154;47.548;18.828;2023-03-14T03:10:00;4.40;;;2.60;;
51238;SDS011;38154;47.548;18.828;2023-03-14T03:12:26;5.95;;;2.87;;
51238;SDS011;38154;47.548;18.828;2023-03-14T03:14:51;7.20;;;3.70;;
51238;SDS011;38154;47.548;18.828;2023-03-14T03:17:17;4.10;;;2.97;;
51238;SDS011;38154;47.548;18.828;2023-03-14T03:19:43;4.63;;;3.40;;
51238;SDS011;38154;47.548;18.828;2023-03-14T03:22:09;5.93;;;3.00;;
51238;SDS011;38154;47.548;18.828;2023-03-14T03:24:35;6.10;;;3.20;;
51238;SDS011;38154;47.548;18.828;2023-03-14T03:27:01;5.40;;;2.90;;
51238;SDS011;38154;47.548;18.828;2023-03-14T03:29:27;7.40;;;3.25;;
51238;SDS011;38154;47.548;18.828;2023-03-14T03:31:53;3.58;;;2.22;;
51238;SDS011;38154;47.548;18.828;2023-03-14T03:34:19;5.43;;;3.00;;
51238;SDS011;38154;47.548;18.828;2023-03-14T03:36:44;6.87;;;3.43;;
51238;SDS011;38154;47.548;18.828;2023-03-14T03:39:10;4.33;;;2.63;;
51238;SDS011;38154;47.548;18.828;2023-03-14T03:41:36;4.47;;;3.10;;
51238;SDS011;38154;47.548;18.828;2023-03-14T03:44:02;4.53;;;2.85;;
51238;SDS011;38154;47.548;18.828;2023-03-14T03:46:28;6.47;;;2.50;;
51238;SDS011;38154;47.548;18.828;2023-03-14T03:48:58;7.90;;;3.33;;
51238;SDS011;38154;47.548;18.828;2023-03-14T03:51:25;6.65;;;2.92;;
51238;SDS011;38154;47.548;18.828;2023-03-14T03:53:52;5.35;;;3.12;;
51238;SDS011;38154;47.548;18.828;2023-03-14T03:56:17;6.00;;;2.87;;
51238;SDS011;38154;47.548;18.828;2023-03-14T03:58:43;3.10;;;2.33;;
51238;SDS011;38154;47.548;18.828;2023-03-14T04:01:10;5.80;;;2.50;;
51238;SDS011;38154;47.548;18.828;2023-03-14T04:03:36;4.37;;;2.92;;
51238;SDS011;38154;47.548;18.828;2023-03-14T04:06:05;5.32;;;3.00;;
51238;SDS011;38154;47.548;18.828;2023-03-14T04:08:33;6.80;;;2.47;;
51238;SDS011;38154;47.548;18.828;2023-03-14T04:10:59;3.42;;;2.85;;
51238;SDS011;38154;47.548;18.828;2023-03-14T04:13:27;9.60;;;2.80;;
51238;SDS011;38154;47.548;18.828;2023-03-14T04:15:53;4.97;;;2.95;;
51238;SDS011;38154;47.548;18.828;2023-03-14T04:18:20;4.22;;;2.28;;
51238;SDS011;38154;47.548;18.828;2023-03-14T04:20:53;5.90;;;3.08;;
51238;SDS011;38154;47.548;18.828;2023-03-14T04:23:20;5.60;;;3.10;;
51238;SDS011;38154;47.548;18.828;2023-03-14T04:25:50;5.45;;;2.22;;
51238;SDS011;38154;47.548;18.828;2023-03-14T04:28:17;3.90;;;2.53;;
51238;SDS011;38154;47.548;18.828;2023-03-14T04:30:43;8.60;;;3.15;;
51238;SDS011;38154;47.548;18.828;2023-03-14T04:33:09;6.70;;;2.70;;
51238;SDS011;38154;47.548;18.828;2023-03-14T04:35:35;4.68;;;3.00;;
51238;SDS011;38154;47.548;18.828;2023-03-14T04:38:01;3.03;;;2.03;;
51238;SDS011;38154;47.548;18.828;2023-03-14T04:40:28;4.65;;;2.42;;
51238;SDS011;38154;47.548;18.828;2023-03-14T04:42:54;5.27;;;2.57;;
51238;SDS011;38154;47.548;18.828;2023-03-14T04:45:20;9.90;;;2.63;;
51238;SDS011;38154;47.548;18.828;2023-03-14T04:47:45;5.30;;;2.13;;
51238;SDS011;38154;47.548;18.828;2023-03-14T04:50:11;4.87;;;2.45;;
51238;SDS011;38154;47.548;18.828;2023-03-14T04:52:38;5.40;;;2.30;;
51238;SDS011;38154;47.548;18.828;2023-03-14T04:55:03;4.40;;;2.20;;
51238;SDS011;38154;47.548;18.828;2023-03-14T04:57:30;2.72;;;2.05;;
51238;SDS011;38154;47.548;18.828;2023-03-14T04:59:56;3.65;;;2.10;;
51238;SDS011;38154;47.548;18.828;2023-03-14T05:02:21;3.70;;;2.08;;
51238;SDS011;38154;47.548;18.828;2023-03-14T05:04:47;6.72;;;2.95;;
51238;SDS011;38154;47.548;18.828;2023-03-14T05:07:13;2.57;;;1.80;;
51238;SDS011;38154;47.548;18.828;2023-03-14T05:09:41;4.93;;;1.95;;
51238;SDS011;38154;47.548;18.828;2023-03-14T05:12:06;7.07;;;2.47;;
51238;SDS011;38154;47.548;18.828;2023-03-14T05:16:59;4.28;;;2.17;;
51238;SDS011;38154;47.548;18.828;2023-03-14T05:19:25;7.50;;;2.50;;
51238;SDS011;38154;47.548;18.828;2023-03-14T05:21:51;4.90;;;2.23;;
51238;SDS011;38154;47.548;18.828;2023-03-14T05:24:17;2.80;;;2.10;;
51238;SDS011;38154;47.548;18.828;2023-03-14T05:26:42;6.67;;;2.77;;
51238;SDS011;38154;47.548;18.828;2023-03-14T05:29:08;3.97;;;1.87;;
51238;SDS011;38154;47.548;18.828;2023-03-14T05:31:34;3.80;;;2.60;;
51238;SDS011;38154;47.548;18.828;2023-03-14T05:34:00;4.37;;;2.22;;
51238;SDS011;38154;47.548;18.828;2023-03-14T05:36:26;10.50;;;2.23;;
51238;SDS011;38154;47.548;18.828;2023-03-14T05:38:52;3.37;;;2.50;;
51238;SDS011;38154;47.548;18.828;2023-03-14T05:41:18;4.47;;;2.37;;
51238;SDS011;38154;47.548;18.828;2023-03-14T05:43:43;4.43;;;2.33;;
51238;SDS011;38154;47.548;18.828;2023-03-14T05:46:09;6.43;;;2.23;;
51238;SDS011;38154;47.548;18.828;2023-03-14T05:48:35;2.93;;;1.97;;
51238;SDS011;38154;47.548;18.828;2023-03-14T05:51:01;5.40;;;2.62;;
51238;SDS011;38154;47.548;18.828;2023-03-14T05:53:27;3.80;;;2.33;;
51238;SDS011;38154;47.548;18.828;2023-03-14T05:55:55;4.25;;;2.12;;
51238;SDS011;38154;47.548;18.828;2023-03-14T05:58:21;6.90;;;2.83;;
51238;SDS011;38154;47.548;18.828;2023-03-14T06:00:47;4.78;;;2.67;;
51238;SDS011;38154;47.548;18.828;2023-03-14T06:03:13;6.68;;;2.97;;
51238;SDS011;38154;47.548;18.828;2023-03-14T06:05:39;3.37;;;2.03;;
51238;SDS011;38154;47.548;18.828;2023-03-14T06:08:05;4.63;;;1.80;;
51238;SDS011;38154;47.548;18.828;2023-03-14T06:10:31;3.83;;;2.20;;
51238;SDS011;38154;47.548;18.828;2023-03-14T06:12:57;4.07;;;2.07;;
51238;SDS011;38154;47.548;18.828;2023-03-14T06:15:23;5.13;;;2.07;;
51238;SDS011;38154;47.548;18.828;2023-03-14T06:17:49;5.33;;;2.10;;
51238;SDS011;38154;47.548;18.828;2023-03-14T06:20:15;4.73;;;2.07;;
51238;SDS011;38154;47.548;18.828;2023-03-14T06:22:41;5.17;;;2.00;;
51238;SDS011;38154;47.548;18.828;2023-03-14T06:25:09;6.80;;;2.57;;
51238;SDS011;38154;47.548;18.828;2023-03-14T06:27:34;4.25;;;2.10;;
51238;SDS011;38154;47.548;18.828;2023-03-14T06:30:00;8.73;;;2.87;;
51238;SDS011;38154;47.548;18.828;2023-03-14T06:32:26;7.07;;;2.40;;
51238;SDS011;38154;47.548;18.828;2023-03-14T06:34:52;2.30;;;1.90;;
51238;SDS011;38154;47.548;18.828;2023-03-14T06:37:18;4.33;;;2.77;;
51238;SDS011;38154;47.548;18.828;2023-03-14T06:39:44;5.73;;;2.50;;
51238;SDS011;38154;47.548;18.828;2023-03-14T06:42:10;6.03;;;2.10;;
51238;SDS011;38154;47.548;18.828;2023-03-14T06:44:36;3.83;;;2.10;;
51238;SDS011;38154;47.548;18.828;2023-03-14T06:47:02;5.50;;;2.33;;
51238;SDS011;38154;47.548;18.828;2023-03-14T06:49:28;5.07;;;2.20;;
51238;SDS011;38154;47.548;18.828;2023-03-14T06:51:54;6.83;;;2.63;;
51238;SDS011;38154;47.548;18.828;2023-03-14T06:54:21;3.40;;;2.33;;
51238;SDS011;38154;47.548;18.828;2023-03-14T06:56:49;5.43;;;2.33;;
51238;SDS011;38154;47.548;18.828;2023-03-14T06:59:15;3.63;;;2.07;;
51238;SDS011;38154;47.548;18.828;2023-03-14T07:01:41;6.07;;;2.63;;
51238;SDS011;38154;47.548;18.828;2023-03-14T07:04:08;6.43;;;3.23;;
51238;SDS011;38154;47.548;18.828;2023-03-14T07:06:34;6.03;;;2.97;;
51238;SDS011;38154;47.548;18.828;2023-03-14T07:09:00;3.00;;;2.23;;
51238;SDS011;38154;47.548;18.828;2023-03-14T07:11:26;7.17;;;2.87;;
51238;SDS011;38154;47.548;18.828;2023-03-14T07:13:52;4.23;;;2.20;;
51238;SDS011;38154;47.548;18.828;2023-03-14T07:16:19;5.80;;;2.93;;
51238;SDS011;38154;47.548;18.828;2023-03-14T07:18:45;4.55;;;2.42;;
51238;SDS011;38154;47.548;18.828;2023-03-14T07:21:11;5.23;;;2.23;;
51238;SDS011;38154;47.548;18.828;2023-03-14T07:23:38;4.93;;;2.55;;
51238;SDS011;38154;47.548;18.828;2023-03-14T07:26:04;5.57;;;2.53;;
51238;SDS011;38154;47.548;18.828;2023-03-14T07:28:30;4.15;;;2.10;;
51238;SDS011;38154;47.548;18.828;2023-03-14T07:30:56;6.23;;;2.50;;
51238;SDS011;38154;47.548;18.828;2023-03-14T07:33:22;5.82;;;2.03;;
51238;SDS011;38154;47.548;18.828;2023-03-14T07:35:48;6.27;;;2.83;;
51238;SDS011;38154;47.548;18.828;2023-03-14T07:40:41;3.72;;;2.15;;
51238;SDS011;38154;47.548;18.828;2023-03-14T07:43:06;3.77;;;1.97;;
51238;SDS011;38154;47.548;18.828;2023-03-14T07:45:45;2.90;;;1.85;;
51238;SDS011;38154;47.548;18.828;2023-03-14T07:48:52;3.12;;;1.80;;
51238;SDS011;38154;47.548;18.828;2023-03-14T07:51:18;3.50;;;1.97;;
51238;SDS011;38154;47.548;18.828;2023-03-14T07:53:44;4.87;;;3.33;;
51238;SDS011;38154;47.548;18.828;2023-03-14T07:58:36;8.40;;;2.33;;
51238;SDS011;38154;47.548;18.828;2023-03-14T08:01:02;2.57;;;1.80;;
51238;SDS011;38154;47.548;18.828;2023-03-14T08:03:28;5.65;;;2.10;;
51238;SDS011;38154;47.548;18.828;2023-03-14T08:05:54;3.73;;;1.87;;
51238;SDS011;38154;47.548;18.828;2023-03-14T08:08:20;3.37;;;1.97;;
51238;SDS011;38154;47.548;18.828;2023-03-14T08:10:47;3.25;;;1.90;;
51238;SDS011;38154;47.548;18.828;2023-03-14T08:13:16;5.50;;;3.03;;
51238;SDS011;38154;47.548;18.828;2023-03-14T08:15:42;3.53;;;1.75;;
51238;SDS011;38154;47.548;18.828;2023-03-14T08:18:08;5.63;;;1.77;;
51238;SDS011;38154;47.548;18.828;2023-03-14T08:20:35;4.97;;;1.92;;
51238;SDS011;38154;47.548;18.828;2023-03-14T08:23:02;4.60;;;2.22;;
51238;SDS011;38154;47.548;18.828;2023-03-14T08:25:30;4.20;;;2.08;;
51238;SDS011;38154;47.548;18.828;2023-03-14T08:27:57;3.67;;;2.15;;
51238;SDS011;38154;47.548;18.828;2023-03-14T08:30:23;4.87;;;1.98;;
51238;SDS011;38154;47.548;18.828;2023-03-14T08:32:49;4.87;;;2.40;;
51238;SDS011;38154;47.548;18.828;2023-03-14T08:35:15;2.62;;;1.92;;
51238;SDS011;38154;47.548;18.828;2023-03-14T08:38:04;4.03;;;2.03;;
51238;SDS011;38154;47.548;18.828;2023-03-14T08:40:30;7.20;;;2.08;;
51238;SDS011;38154;47.548;18.828;2023-03-14T08:42:56;2.58;;;1.37;;
51238;SDS011;38154;47.548;18.828;2023-03-14T08:45:25;2.60;;;1.80;;
51238;SDS011;38154;47.548;18.828;2023-03-14T08:47:53;2.97;;;1.87;;
51238;SDS011;38154;47.548;18.828;2023-03-14T08:50:19;4.68;;;2.35;;
51238;SDS011;38154;47.548;18.828;2023-03-14T08:52:45;4.95;;;2.22;;
51238;SDS011;38154;47.548;18.828;2023-03-14T08:55:11;7.30;;;3.17;;
51238;SDS011;38154;47.548;18.828;2023-03-14T08:57:37;4.85;;;2.60;;
51238;SDS011;38154;47.548;18.828;2023-03-14T09:00:03;4.80;;;2.35;;
51238;SDS011;38154;47.548;18.828;2023-03-14T09:02:41;2.83;;;1.60;;
51238;SDS011;38154;47.548;18.828;2023-03-14T09:05:08;2.83;;;1.55;;
51238;SDS011;38154;47.548;18.828;2023-03-14T09:07:35;5.47;;;1.90;;
51238;SDS011;38154;47.548;18.828;2023-03-14T09:10:02;3.67;;;1.87;;
51238;SDS011;38154;47.548;18.828;2023-03-14T09:12:28;3.53;;;1.30;;
51238;SDS011;38154;47.548;18.828;2023-03-14T09:14:54;2.47;;;1.58;;
51238;SDS011;38154;47.548;18.828;2023-03-14T09:17:20;3.40;;;1.58;;
51238;SDS011;38154;47.548;18.828;2023-03-14T09:19:46;3.03;;;1.30;;
51238;SDS011;38154;47.548;18.828;2023-03-14T09:22:12;2.47;;;1.15;;
51238;SDS011;38154;47.548;18.828;2023-03-14T09:24:38;3.35;;;1.62;;
51238;SDS011;38154;47.548;18.828;2023-03-14T09:27:05;4.45;;;1.77;;
51238;SDS011;38154;47.548;18.828;2023-03-14T09:29:31;4.20;;;1.73;;
51238;SDS011;38154;47.548;18.828;2023-03-14T09:31:57;2.40;;;1.58;;
51238;SDS011;38154;47.548;18.828;2023-03-14T09:34:23;4.03;;;1.62;;
51238;SDS011;38154;47.548;18.828;2023-03-14T09:36:49;2.47;;;1.62;;
51238;SDS011;38154;47.548;18.828;2023-03-14T09:39:15;3.30;;;1.37;;
51238;SDS011;38154;47.548;18.828;2023-03-14T09:41:43;2.15;;;1.23;;
51238;SDS011;38154;47.548;18.828;2023-03-14T09:44:19;3.70;;;1.80;;
51238;SDS011;38154;47.548;18.828;2023-03-14T09:46:51;3.75;;;1.92;;
51238;SDS011;38154;47.548;18.828;2023-03-14T09:51:49;1.27;;;1.08;;
51238;SDS011;38154;47.548;18.828;2023-03-14T09:54:24;0.47;;;0.40;;
51238;SDS011;38154;47.548;18.828;2023-03-14T09:56:52;0.93;;;0.60;;
51238;SDS011;38154;47.548;18.828;2023-03-14T09:59:19;2.50;;;0.65;;
51238;SDS011;38154;47.548;18.828;2023-03-14T10:01:46;1.60;;;1.02;;
51238;SDS011;38154;47.548;18.828;2023-03-14T10:04:12;1.42;;;0.70;;
51238;SDS011;38154;47.548;18.828;2023-03-14T10:06:41;1.17;;;0.70;;
51238;SDS011;38154;47.548;18.828;2023-03-14T10:09:18;0.60;;;0.60;;
51238;SDS011;38154;47.548;18.828;2023-03-14T10:11:56;0.82;;;0.73;;
51238;SDS011;38154;47.548;18.828;2023-03-14T10:14:32;0.88;;;0.47;;
51238;SDS011;38154;47.548;18.828;2023-03-14T10:17:09;12.48;;;0.85;;
51238;SDS011;38154;47.548;18.828;2023-03-14T10:19:37;2.12;;;0.82;;
51238;SDS011;38154;47.548;18.828;2023-03-14T10:22:15;1.73;;;0.82;;
51238;SDS011;38154;47.548;18.828;2023-03-14T10:24:46;0.73;;;0.40;;
51238;SDS011;38154;47.548;18.828;2023-03-14T10:27:18;1.02;;;0.65;;
51238;SDS011;38154;47.548;18.828;2023-03-14T10:29:56;0.57;;;0.57;;
51238;SDS011;38154;47.548;18.828;2023-03-14T10:32:34;0.73;;;0.68;;
51238;SDS011;38154;47.548;18.828;2023-03-14T10:40:18;1.35;;;0.70;;
51238;SDS011;38154;47.548;18.828;2023-03-14T10:42:44;1.25;;;0.47;;
51238;SDS011;38154;47.548;18.828;2023-03-14T10:48:22;7.25;;;0.82;;
51238;SDS011;38154;47.548;18.828;2023-03-14T10:51:09;0.80;;;0.50;;
51238;SDS011;38154;47.548;18.828;2023-03-14T10:53:41;2.65;;;0.70;;
51238;SDS011;38154;47.548;18.828;2023-03-14T10:56:18;0.60;;;0.50;;
51238;SDS011;38154;47.548;18.828;2023-03-14T10:58:47;0.85;;;0.30;;
51238;SDS011;38154;47.548;18.828;2023-03-14T11:09:56;0.70;;;0.30;;
51238;SDS011;38154;47.548;18.828;2023-03-14T11:12:38;1.17;;;0.45;;
51238;SDS011;38154;47.548;18.828;2023-03-14T11:15:50;2.05;;;0.52;;
51238;SDS011;38154;47.548;18.828;2023-03-14T11:21:16;1.23;;;0.68;;
51238;SDS011;38154;47.548;18.828;2023-03-14T11:26:43;0.80;;;0.65;;
51238;SDS011;38154;47.548;18.828;2023-03-14T11:35:25;0.43;;;0.43;;
51238;SDS011;38154;47.548;18.828;2023-03-14T11:38:05;1.67;;;0.62;;
51238;SDS011;38154;47.548;18.828;2023-03-14T11:40:39;0.45;;;0.40;;
51238;SDS011;38154;47.548;18.828;2023-03-14T11:43:12;0.65;;;0.60;;
51238;SDS011;38154;47.548;18.828;2023-03-14T11:45:43;0.85;;;0.60;;
51238;SDS011;38154;47.548;18.828;2023-03-14T11:50:49;1.23;;;0.60;;
51238;SDS011;38154;47.548;18.828;2023-03-14T11:56:32;0.82;;;0.50;;
51238;SDS011;38154;47.548;18.828;2023-03-14T11:59:09;0.68;;;0.40;;
51238;SDS011;38154;47.548;18.828;2023-03-14T12:06:54;0.75;;;0.40;;
51238;SDS011;38154;47.548;18.828;2023-03-14T12:09:21;3.87;;;0.70;;
51238;SDS011;38154;47.548;18.828;2023-03-14T12:11:52;0.98;;;0.70;;
51238;SDS011;38154;47.548;18.828;2023-03-14T12:14:26;1.05;;;0.95;;
51238;SDS011;38154;47.548;18.828;2023-03-14T12:16:58;1.42;;;0.60;;
51238;SDS011;38154;47.548;18.828;2023-03-14T12:19:29;0.50;;;0.43;;
51238;SDS011;38154;47.548;18.828;2023-03-14T12:22:01;0.93;;;0.88;;
51238;SDS011;38154;47.548;18.828;2023-03-14T12:25:20;0.47;;;0.47;;
51238;SDS011;38154;47.548;18.828;2023-03-14T12:35:42;1.12;;;0.73;;
51238;SDS011;38154;47.548;18.828;2023-03-14T12:38:24;5.25;;;0.77;;
51238;SDS011;38154;47.548;18.828;2023-03-14T12:41:11;1.02;;;0.60;;
51238;SDS011;38154;47.548;18.828;2023-03-14T12:43:43;0.60;;;0.47;;
51238;SDS011;38154;47.548;18.828;2023-03-14T12:48:43;3.83;;;0.85;;
51238;SDS011;38154;47.548;18.828;2023-03-14T12:51:21;1.42;;;1.10;;
51238;SDS011;38154;47.548;18.828;2023-03-14T12:54:15;1.15;;;0.80;;
51238;SDS011;38154;47.548;18.828;2023-03-14T13:02:49;0.65;;;0.65;;
51238;SDS011;38154;47.548;18.828;2023-03-14T13:05:17;0.90;;;0.52;;
51238;SDS011;38154;47.548;18.828;2023-03-14T13:10:26;2.30;;;0.60;;
51238;SDS011;38154;47.548;18.828;2023-03-14T13:12:55;3.37;;;0.80;;
51238;SDS011;38154;47.548;18.828;2023-03-14T13:15:26;1.20;;;0.52;;
51238;SDS011;38154;47.548;18.828;2023-03-14T13:17:58;2.33;;;0.50;;
51238;SDS011;38154;47.548;18.828;2023-03-14T13:20:29;1.08;;;0.62;;
51238;SDS011;38154;47.548;18.828;2023-03-14T13:22:58;0.70;;;0.70;;
51238;SDS011;38154;47.548;18.828;2023-03-14T13:25:23;0.67;;;0.50;;
51238;SDS011;38154;47.548;18.828;2023-03-14T13:27:55;0.80;;;0.70;;
51238;SDS011;38154;47.548;18.828;2023-03-14T13:32:52;3.45;;;0.80;;
51238;SDS011;38154;47.548;18.828;2023-03-14T13:38:00;0.62;;;0.60;;
51238;SDS011;38154;47.548;18.828;2023-03-14T13:40:34;1.02;;;0.70;;
51238;SDS011;38154;47.548;18.828;2023-03-14T13:43:17;0.50;;;0.50;;
51238;SDS011;38154;47.548;18.828;2023-03-14T13:48:11;2.10;;;1.40;;
51238;SDS011;38154;47.548;18.828;2023-03-14T13:50:44;1.85;;;1.10;;
51238;SDS011;38154;47.548;18.828;2023-03-14T13:53:18;1.48;;;0.88;;
51238;SDS011;38154;47.548;18.828;2023-03-14T13:55:44;2.10;;;0.98;;
51238;SDS011;38154;47.548;18.828;2023-03-14T13:58:19;1.23;;;1.02;;
51238;SDS011;38154;47.548;18.828;2023-03-14T14:00:59;1.40;;;0.82;;
51238;SDS011;38154;47.548;18.828;2023-03-14T14:03:26;1.80;;;0.85;;
51238;SDS011;38154;47.548;18.828;2023-03-14T14:05:54;3.37;;;0.90;;
51238;SDS011;38154;47.548;18.828;2023-03-14T14:08:23;0.73;;;0.62;;
51238;SDS011;38154;47.548;18.828;2023-03-14T14:10:49;2.42;;;1.15;;
51238;SDS011;38154;47.548;18.828;2023-03-14T14:15:46;2.22;;;0.80;;
51238;SDS011;38154;47.548;18.828;2023-03-14T14:18:16;3.22;;;1.08;;
51238;SDS011;38154;47.548;18.828;2023-03-14T14:20:45;1.23;;;0.70;;
51238;SDS011;38154;47.548;18.828;2023-03-14T14:23:14;1.95;;;0.80;;
51238;SDS011;38154;47.548;18.828;2023-03-14T14:25:45;1.42;;;0.75;;
51238;SDS011;38154;47.548;18.828;2023-03-14T14:28:23;0.65;;;0.60;;
51238;SDS011;38154;47.548;18.828;2023-03-14T14:31:03;3.35;;;0.70;;
51238;SDS011;38154;47.548;18.828;2023-03-14T14:33:30;4.82;;;1.05;;
51238;SDS011;38154;47.548;18.828;2023-03-14T14:36:04;4.78;;;0.93;;
51238;SDS011;38154;47.548;18.828;2023-03-14T14:38:30;1.12;;;0.65;;
51238;SDS011;38154;47.548;18.828;2023-03-14T14:40:59;4.77;;;1.27;;
51238;SDS011;38154;47.548;18.828;2023-03-14T14:43:28;4.70;;;1.17;;
51238;SDS011;38154;47.548;18.828;2023-03-14T14:45:58;2.05;;;1.15;;
51238;SDS011;38154;47.548;18.828;2023-03-14T14:48:25;4.93;;;1.53;;
51238;SDS011;38154;47.548;18.828;2023-03-14T14:50:58;5.15;;;1.33;;
51238;SDS011;38154;47.548;18.828;2023-03-14T14:53:28;3.42;;;1.45;;
51238;SDS011;38154;47.548;18.828;2023-03-14T14:55:55;5.78;;;1.80;;
51238;SDS011;38154;47.548;18.828;2023-03-14T14:58:27;4.47;;;1.40;;
51238;SDS011;38154;47.548;18.828;2023-03-14T15:01:08;2.00;;;1.45;;
51238;SDS011;38154;47.548;18.828;2023-03-14T15:03:41;3.65;;;1.02;;
51238;SDS011;38154;47.548;18.828;2023-03-14T15:06:08;3.03;;;2.00;;
51238;SDS011;38154;47.548;18.828;2023-03-14T15:08:37;4.05;;;1.98;;
51238;SDS011;38154;47.548;18.828;2023-03-14T15:11:03;3.50;;;1.80;;
51238;SDS011;38154;47.548;18.828;2023-03-14T15:13:30;3.22;;;1.35;;
51238;SDS011;38154;47.548;18.828;2023-03-14T15:15:56;2.35;;;1.60;;
51238;SDS011;38154;47.548;18.828;2023-03-14T15:18:23;5.28;;;1.12;;
51238;SDS011;38154;47.548;18.828;2023-03-14T15:20:51;2.47;;;1.40;;
51238;SDS011;38154;47.548;18.828;2023-03-14T15:23:18;1.00;;;0.90;;
51238;SDS011;38154;47.548;18.828;2023-03-14T15:25:45;1.27;;;1.17;;
51238;SDS011;38154;47.548;18.828;2023-03-14T15:28:16;4.47;;;1.58;;
51238;SDS011;38154;47.548;18.828;2023-03-14T15:30:51;2.85;;;1.30;;
51238;SDS011;38154;47.548;18.828;2023-03-14T15:33:19;17.75;;;6.05;;
51238;SDS011;38154;47.548;18.828;2023-03-14T15:35:46;8.02;;;3.53;;
51238;SDS011;38154;47.548;18.828;2023-03-14T15:38:17;4.30;;;2.05;;
51238;SDS011;38154;47.548;18.828;2023-03-14T15:40:51;4.93;;;2.20;;
51238;SDS011;38154;47.548;18.828;2023-03-14T15:43:18;4.32;;;1.75;;
51238;SDS011;38154;47.548;18.828;2023-03-14T15:45:44;3.80;;;2.22;;
51238;SDS011;38154;47.548;18.828;2023-03-14T15:48:12;1.75;;;1.23;;
51238;SDS011;38154;47.548;18.828;2023-03-14T15:50:41;5.53;;;1.80;;
51238;SDS011;38154;47.548;18.828;2023-03-14T15:53:07;5.57;;;1.55;;
51238;SDS011;38154;47.548;18.828;2023-03-14T15:55:33;1.77;;;1.40;;
51238;SDS011;38154;47.548;18.828;2023-03-14T15:57:59;4.10;;;1.13;;
51238;SDS011;38154;47.548;18.828;2023-03-14T16:00:26;3.05;;;1.73;;
51238;SDS011;38154;47.548;18.828;2023-03-14T16:02:52;2.07;;;1.33;;
51238;SDS011;38154;47.548;18.828;2023-03-14T16:05:17;1.73;;;1.03;;
51238;SDS011;38154;47.548;18.828;2023-03-14T16:07:46;2.10;;;1.10;;
51238;SDS011;38154;47.548;18.828;2023-03-14T16:10:13;2.17;;;1.30;;
51238;SDS011;38154;47.548;18.828;2023-03-14T16:12:40;2.75;;;1.33;;
51238;SDS011;38154;47.548;18.828;2023-03-14T16:15:07;2.70;;;1.63;;
51238;SDS011;38154;47.548;18.828;2023-03-14T16:17:33;3.53;;;1.42;;
51238;SDS011;38154;47.548;18.828;2023-03-14T16:20:00;1.50;;;1.25;;